createdAt,value
2018-11-05T00:00:50.134Z,10.75
2018-11-05T00:03:55.524Z,10.77
2018-11-05T00:07:00.897Z,10.68
2018-11-05T00:10:06.586Z,10.76
2018-11-05T00:13:12.116Z,10.77
2018-11-05T00:16:17.551Z,10.75
2018-11-05T00:19:23.438Z,10.82
2018-11-05T00:22:28.939Z,10.81
2018-11-05T00:25:34.326Z,10.70
2018-11-05T00:28:39.906Z,10.69
2018-11-05T00:31:45.385Z,10.80
2018-11-05T00:34:50.786Z,10.82
2018-11-05T00:37:56.322Z,10.66
2018-11-05T00:41:01.829Z,10.67
2018-11-05T00:44:07.838Z,10.77
2018-11-05T00:47:13.275Z,10.84
2018-11-05T00:50:20.928Z,10.95
2018-11-05T00:53:26.365Z,10.91
2018-11-05T00:56:31.746Z,10.82
2018-11-05T00:59:37.150Z,10.95
2018-11-05T01:02:42.810Z,10.89
2018-11-05T01:05:48.206Z,10.84
2018-11-05T01:08:53.589Z,10.85
2018-11-05T01:11:59.086Z,10.91
2018-11-05T01:15:04.529Z,10.83
2018-11-05T01:18:09.959Z,10.88
2018-11-05T01:21:15.425Z,10.90
2018-11-05T01:24:20.803Z,10.88
2018-11-05T01:27:26.181Z,10.86
2018-11-05T01:30:31.574Z,10.79
2018-11-05T01:33:37.016Z,10.78
2018-11-05T01:36:42.401Z,10.76
2018-11-05T01:39:47.777Z,10.64
2018-11-05T01:42:53.239Z,10.71
2018-11-05T01:45:58.626Z,10.65
2018-11-05T01:49:04.051Z,10.70
2018-11-05T01:52:10.213Z,10.78
2018-11-05T01:55:15.641Z,10.72
2018-11-05T01:58:21.042Z,10.84
2018-11-05T02:01:26.582Z,10.85
2018-11-05T02:04:31.983Z,10.87
2018-11-05T02:07:37.362Z,10.95
2018-11-05T02:10:42.747Z,11.01
2018-11-05T02:13:48.243Z,10.98
2018-11-05T02:16:53.654Z,10.91
2018-11-05T02:19:59.082Z,10.95
2018-11-05T02:23:05.067Z,10.99
2018-11-05T02:26:10.851Z,10.97
2018-11-05T02:29:16.214Z,10.88
2018-11-05T02:32:21.765Z,10.93
2018-11-05T02:35:27.403Z,11.01
2018-11-05T02:38:32.806Z,11.03
2018-11-05T02:41:38.487Z,10.92
2018-11-05T02:44:43.889Z,10.83
2018-11-05T02:47:49.458Z,10.71
2018-11-05T02:50:54.906Z,10.80
2018-11-05T02:54:00.314Z,10.86
2018-11-05T02:57:05.947Z,10.86
2018-11-05T03:00:19.924Z,10.94
2018-11-05T03:03:25.476Z,10.99
2018-11-05T03:06:31.014Z,11.02
2018-11-05T03:09:36.493Z,10.92
2018-11-05T03:12:42.542Z,10.89
2018-11-05T03:15:47.971Z,10.81
2018-11-05T03:18:53.372Z,10.87
2018-11-05T03:21:59.482Z,10.86
2018-11-05T03:25:05.526Z,10.82
2018-11-05T03:28:10.913Z,10.88
2018-11-05T03:31:16.398Z,10.87
2018-11-05T03:34:22.300Z,10.89
2018-11-05T03:37:28.082Z,10.87
2018-11-05T03:40:33.479Z,10.91
2018-11-05T03:43:38.966Z,10.95
2018-11-05T03:46:45.238Z,10.79
2018-11-05T03:49:50.732Z,10.80
2018-11-05T03:52:56.779Z,10.82
2018-11-05T03:56:02.300Z,10.66
2018-11-05T03:59:07.974Z,10.67
2018-11-05T04:02:13.570Z,10.69
2018-11-05T04:05:18.994Z,10.76
2018-11-05T04:08:24.378Z,10.80
2018-11-05T04:11:30.552Z,10.85
2018-11-05T04:14:36.000Z,10.86
2018-11-05T04:17:41.687Z,10.90
2018-11-05T04:20:47.102Z,10.87
2018-11-05T04:23:52.576Z,10.93
2018-11-05T04:26:57.998Z,10.92
2018-11-05T04:30:03.444Z,10.95
2018-11-05T04:33:08.946Z,10.99
2018-11-05T04:36:14.373Z,10.88
2018-11-05T04:39:19.770Z,10.83
2018-11-05T04:42:25.299Z,10.80
2018-11-05T04:45:30.699Z,10.89
2018-11-05T04:48:36.114Z,10.87
2018-11-05T04:51:41.919Z,10.91
2018-11-05T04:54:47.313Z,10.82
2018-11-05T04:57:52.721Z,10.79
2018-11-05T05:00:58.250Z,10.88
2018-11-05T05:04:03.642Z,10.83
2018-11-05T05:07:09.155Z,10.83
2018-11-05T05:10:14.554Z,10.74
2018-11-05T05:13:20.073Z,10.86
2018-11-05T05:16:25.616Z,10.85
2018-11-05T05:19:31.098Z,10.85
2018-11-05T05:22:36.793Z,10.82
2018-11-05T05:25:42.270Z,10.72
2018-11-05T05:28:49.781Z,10.84
2018-11-05T05:31:55.226Z,10.79
2018-11-05T05:35:00.611Z,10.73
2018-11-05T05:38:06.906Z,10.81
2018-11-05T05:41:12.507Z,10.84
2018-11-05T05:44:18.045Z,10.89
2018-11-05T05:47:23.909Z,10.86
2018-11-05T05:50:29.307Z,10.83
2018-11-05T05:53:34.791Z,10.92
2018-11-05T05:56:40.635Z,10.94
2018-11-05T05:59:48.154Z,10.91
2018-11-05T06:02:53.794Z,10.92
2018-11-05T06:05:59.239Z,10.97
2018-11-05T06:09:07.114Z,10.98
2018-11-05T06:12:12.592Z,11.03
2018-11-05T06:15:18.227Z,11.01
2018-11-05T06:18:23.886Z,11.04
2018-11-05T06:21:29.353Z,10.89
2018-11-05T06:24:34.771Z,10.91
2018-11-05T06:27:40.212Z,10.91
2018-11-05T06:30:45.651Z,10.91
2018-11-05T06:33:51.149Z,10.94
2018-11-05T06:36:56.575Z,10.80
2018-11-05T06:40:01.960Z,10.95
2018-11-05T06:43:07.605Z,11.01
2018-11-05T06:46:13.729Z,11.10
2018-11-05T06:49:19.911Z,11.12
2018-11-05T06:52:25.366Z,11.16
2018-11-05T06:55:30.907Z,11.19
2018-11-05T06:58:36.318Z,11.16
2018-11-05T07:01:41.806Z,11.21
2018-11-05T07:04:47.289Z,11.24
2018-11-05T07:07:53.010Z,11.24
2018-11-05T07:10:58.443Z,11.35
2018-11-05T07:14:06.796Z,11.31
2018-11-05T07:17:12.514Z,11.32
2018-11-05T07:20:19.177Z,11.26
2018-11-05T07:23:24.681Z,11.36
2018-11-05T07:26:30.226Z,11.29
2018-11-05T07:29:36.550Z,11.37
2018-11-05T07:32:43.107Z,11.32
2018-11-05T07:35:48.600Z,11.41
2018-11-05T07:38:54.694Z,11.38
2018-11-05T07:42:00.120Z,11.43
2018-11-05T07:45:07.649Z,11.46
2018-11-05T07:48:13.061Z,11.33
2018-11-05T07:51:18.538Z,11.44
2018-11-05T07:54:23.957Z,11.44
2018-11-05T07:57:29.439Z,11.49
2018-11-05T08:00:39.999Z,11.45
2018-11-05T08:03:45.458Z,11.47
2018-11-05T08:06:51.280Z,11.53
2018-11-05T08:09:56.669Z,11.67
2018-11-05T08:13:02.083Z,11.74
2018-11-05T08:16:08.203Z,11.78
2018-11-05T08:19:13.608Z,11.78
2018-11-05T08:22:19.035Z,11.75
2018-11-05T08:25:24.474Z,11.79
2018-11-05T08:28:29.897Z,11.74
2018-11-05T08:31:35.457Z,11.86
2018-11-05T08:34:40.846Z,11.92
2018-11-05T08:37:47.221Z,11.85
2018-11-05T08:40:52.610Z,11.79
2018-11-05T08:43:57.994Z,11.82
2018-11-05T08:47:04.896Z,11.83
2018-11-05T08:50:13.190Z,11.91
2018-11-05T08:53:18.678Z,11.90
2018-11-05T08:56:24.059Z,11.99
2018-11-05T08:59:29.450Z,12.06
2018-11-05T09:02:35.760Z,12.08
2018-11-05T09:05:41.191Z,12.11
2018-11-05T09:08:46.942Z,11.95
2018-11-05T09:11:52.418Z,11.98
2018-11-05T09:14:58.018Z,12.07
2018-11-05T09:18:03.426Z,12.05
2018-11-05T09:21:08.841Z,12.10
2018-11-05T09:24:14.629Z,12.09
2018-11-05T09:27:20.182Z,12.19
2018-11-05T09:30:26.062Z,12.24
2018-11-05T09:33:31.498Z,12.29
2018-11-05T09:36:36.897Z,12.37
2018-11-05T09:39:42.251Z,12.31
2018-11-05T09:42:48.369Z,12.23
2018-11-05T09:45:53.909Z,12.24
2018-11-05T09:48:59.265Z,12.23
2018-11-05T09:52:04.782Z,12.33
2018-11-05T09:55:11.731Z,12.41
2018-11-05T09:58:17.091Z,12.45
2018-11-05T10:01:22.554Z,12.50
2018-11-05T10:04:28.005Z,12.41
2018-11-05T10:07:33.625Z,12.43
2018-11-05T10:10:39.038Z,12.47
2018-11-05T10:13:44.457Z,12.50
2018-11-05T10:16:49.848Z,12.49
2018-11-05T10:19:55.235Z,12.48
2018-11-05T10:23:00.634Z,12.58
2018-11-05T10:26:06.403Z,12.58
2018-11-05T10:29:11.957Z,12.62
2018-11-05T10:32:17.350Z,12.58
2018-11-05T10:35:27.939Z,12.55
2018-11-05T10:38:35.499Z,12.44
2018-11-05T10:41:41.050Z,12.54
2018-11-05T10:44:46.474Z,12.58
2018-11-05T10:47:51.923Z,12.52
2018-11-05T10:50:57.365Z,12.56
2018-11-05T10:54:02.743Z,12.55
2018-11-05T10:57:08.269Z,12.52
2018-11-05T11:00:23.767Z,12.62
2018-11-05T11:03:34.192Z,12.64
2018-11-05T11:06:39.739Z,12.61
2018-11-05T11:09:45.575Z,12.58
2018-11-05T11:12:52.304Z,12.64
2018-11-05T11:19:30.509Z,12.64
2018-11-05T11:22:36.006Z,12.61
2018-11-05T11:25:41.830Z,12.72
2018-11-05T11:28:47.440Z,12.79
2018-11-05T11:31:52.966Z,12.74
2018-11-05T11:34:59.170Z,12.72
2018-11-05T11:38:04.955Z,12.75
2018-11-05T11:41:10.435Z,12.72
2018-11-05T11:44:15.916Z,12.74
2018-11-05T11:47:21.473Z,12.73
2018-11-05T11:50:27.073Z,12.75
2018-11-05T11:53:32.555Z,12.68
2018-11-05T11:56:38.331Z,12.69
2018-11-05T11:59:43.889Z,12.73
2018-11-05T12:02:50.217Z,12.83
2018-11-05T12:05:55.696Z,12.70
2018-11-05T12:09:01.078Z,12.64
2018-11-05T12:12:07.998Z,12.74
2018-11-05T12:15:15.321Z,12.87
2018-11-05T12:18:20.698Z,12.91
2018-11-05T12:21:26.077Z,12.79
2018-11-05T12:24:31.697Z,12.70
2018-11-05T12:27:37.495Z,12.70
2018-11-05T12:30:42.929Z,12.80
2018-11-05T12:33:48.466Z,12.87
2018-11-05T12:36:53.830Z,12.88
2018-11-05T12:39:59.193Z,12.86
2018-11-05T12:43:04.607Z,12.85
2018-11-05T12:46:10.334Z,12.72
2018-11-05T12:49:17.866Z,12.69
2018-11-05T12:52:23.326Z,12.83
2018-11-05T12:55:28.773Z,12.81
2018-11-05T12:58:34.393Z,12.79
2018-11-05T13:01:40.279Z,12.80
2018-11-05T13:04:45.649Z,12.96
2018-11-05T13:07:51.068Z,12.74
2018-11-05T13:10:56.443Z,12.80
2018-11-05T13:14:01.833Z,12.70
2018-11-05T13:17:07.215Z,12.71
2018-11-05T13:20:16.699Z,12.71
2018-11-05T13:23:27.840Z,12.69
2018-11-05T13:26:33.194Z,12.77
2018-11-05T13:29:38.761Z,12.77
2018-11-05T13:32:44.798Z,12.72
2018-11-05T13:35:50.178Z,12.79
2018-11-05T13:38:55.591Z,12.83
2018-11-05T13:42:01.062Z,12.69
2018-11-05T13:45:08.305Z,12.72
2018-11-05T13:48:14.218Z,12.82
2018-11-05T13:51:20.462Z,12.87
2018-11-05T13:54:25.968Z,12.85
2018-11-05T13:57:31.576Z,12.89
2018-11-05T14:00:37.225Z,12.86
2018-11-05T14:03:42.626Z,12.86
2018-11-05T14:06:48.215Z,12.89
2018-11-05T14:09:53.721Z,12.87
2018-11-05T14:12:59.090Z,12.91
2018-11-05T14:16:04.882Z,12.98
2018-11-05T14:19:10.302Z,12.95
2018-11-05T14:22:15.670Z,12.89
2018-11-05T14:25:21.706Z,12.86
2018-11-05T14:28:27.422Z,12.86
2018-11-05T14:31:33.150Z,12.86
2018-11-05T14:34:38.550Z,12.81
2018-11-05T14:37:43.941Z,12.83
2018-11-05T14:40:49.326Z,12.82
2018-11-05T14:43:54.702Z,12.75
2018-11-05T14:47:00.098Z,12.81
2018-11-05T14:50:07.445Z,12.85
2018-11-05T14:53:12.819Z,12.70
2018-11-05T14:56:18.229Z,12.89
2018-11-05T14:59:23.654Z,12.89
2018-11-05T15:02:34.156Z,12.87
2018-11-05T15:05:39.734Z,12.93
2018-11-05T15:08:45.141Z,12.87
2018-11-05T15:11:50.538Z,12.82
2018-11-05T15:14:55.941Z,12.86
2018-11-05T15:18:02.655Z,12.76
2018-11-05T15:21:08.847Z,12.79
2018-11-05T15:24:14.433Z,12.77
2018-11-05T15:27:19.827Z,12.68
2018-11-05T15:30:25.228Z,12.64
2018-11-05T15:33:30.714Z,12.64
2018-11-05T15:36:36.318Z,12.63
2018-11-05T15:39:41.699Z,12.65
2018-11-05T15:42:47.429Z,12.64
2018-11-05T15:45:52.802Z,12.69
2018-11-05T15:48:58.377Z,12.73
2018-11-05T15:52:04.054Z,12.63
2018-11-05T15:55:09.598Z,12.58
2018-11-05T15:58:14.949Z,12.56
2018-11-05T16:01:20.482Z,12.60
2018-11-05T16:04:26.686Z,12.65
2018-11-05T16:07:32.210Z,12.58
2018-11-05T16:10:37.607Z,12.61
2018-11-05T16:13:43.346Z,12.63
2018-11-05T16:16:48.713Z,12.72
2018-11-05T16:19:54.902Z,12.56
2018-11-05T16:23:00.291Z,12.59
2018-11-05T16:26:06.141Z,12.68
2018-11-05T16:29:11.514Z,12.72
2018-11-05T16:32:17.029Z,12.72
2018-11-05T16:35:22.631Z,12.63
2018-11-05T16:38:28.289Z,12.70
2018-11-05T16:41:33.899Z,12.67
2018-11-05T16:44:39.835Z,12.61
2018-11-05T16:47:45.633Z,12.52
2018-11-05T16:50:51.186Z,12.62
2018-11-05T16:53:56.634Z,12.45
2018-11-05T16:57:02.189Z,12.55
2018-11-05T17:00:08.347Z,12.47
2018-11-05T17:03:13.848Z,12.54
2018-11-05T17:06:19.430Z,12.63
2018-11-05T17:09:24.856Z,12.62
2018-11-05T17:12:31.266Z,12.63
2018-11-05T17:15:36.635Z,12.65
2018-11-05T17:18:42.074Z,12.59
2018-11-05T17:21:47.545Z,12.57
2018-11-05T17:24:53.016Z,12.61
2018-11-05T17:27:58.446Z,12.54
2018-11-05T17:31:03.920Z,12.44
2018-11-05T17:34:09.335Z,12.53
2018-11-05T17:37:14.902Z,12.59
2018-11-05T17:40:21.700Z,12.50
2018-11-05T17:43:27.218Z,12.52
2018-11-05T17:46:32.649Z,12.61
2018-11-05T17:49:38.030Z,12.55
2018-11-05T17:52:44.236Z,12.60
2018-11-05T17:55:49.586Z,12.41
2018-11-05T17:58:55.003Z,12.40
2018-11-05T18:02:00.433Z,12.45
2018-11-05T18:05:06.509Z,12.48
2018-11-05T18:08:11.882Z,12.54
2018-11-05T18:11:17.277Z,12.51
2018-11-05T18:14:22.674Z,12.40
2018-11-05T18:17:28.108Z,12.32
2018-11-05T18:20:33.618Z,12.34
2018-11-05T18:23:39.062Z,12.36
2018-11-05T18:26:44.456Z,12.15
2018-11-05T18:29:49.874Z,12.16
2018-11-05T18:32:55.266Z,12.09
2018-11-05T18:36:00.651Z,12.05
2018-11-05T18:39:09.943Z,12.03
2018-11-05T18:42:27.162Z,12.01
2018-11-05T18:45:32.621Z,12.06
2018-11-05T18:48:38.210Z,11.99
2018-11-05T18:51:43.585Z,11.82
2018-11-05T18:54:49.238Z,11.79
2018-11-05T18:57:54.821Z,11.69
2018-11-05T19:01:00.262Z,11.68
2018-11-05T19:04:06.384Z,11.67
2018-11-05T19:07:11.750Z,11.70
2018-11-05T19:10:17.671Z,11.72
2018-11-05T19:13:23.070Z,11.66
2018-11-05T19:16:28.469Z,11.64
2018-11-05T19:19:33.875Z,11.62
2018-11-05T19:22:41.395Z,11.61
2018-11-05T19:25:46.974Z,11.45
2018-11-05T19:28:52.337Z,11.53
2018-11-05T19:31:57.716Z,11.55
2018-11-05T19:35:03.118Z,11.52
2018-11-05T19:38:08.815Z,11.51
2018-11-05T19:41:14.198Z,11.47
2018-11-05T19:44:20.358Z,11.43
2018-11-05T19:47:25.736Z,11.34
2018-11-05T19:50:31.141Z,11.37
2018-11-05T19:53:36.580Z,11.37
2018-11-05T19:56:42.138Z,11.41
2018-11-05T19:59:47.873Z,11.39
2018-11-05T20:02:54.370Z,11.34
2018-11-05T20:05:59.824Z,11.35
2018-11-05T20:09:07.379Z,11.35
2018-11-05T20:12:12.805Z,11.36
2018-11-05T20:15:18.301Z,11.35
2018-11-05T20:18:23.748Z,11.36
2018-11-05T20:21:29.298Z,11.33
2018-11-05T20:24:34.681Z,11.33
2018-11-05T20:27:40.725Z,11.33
2018-11-05T20:30:46.135Z,11.33
2018-11-05T20:33:51.674Z,11.22
2018-11-05T20:36:57.090Z,11.22
2018-11-05T20:40:02.664Z,11.21
2018-11-05T20:43:07.855Z,11.18
2018-11-05T20:46:13.283Z,11.18
2018-11-05T20:49:18.753Z,11.09
2018-11-05T20:52:24.220Z,11.09
2018-11-05T20:55:29.598Z,11.11
2018-11-05T20:58:35.015Z,11.10
2018-11-05T21:01:43.716Z,11.09
2018-11-05T21:05:00.940Z,11.05
2018-11-05T21:08:06.546Z,10.99
2018-11-05T21:11:11.970Z,10.87
2018-11-05T21:14:20.939Z,10.82
2018-11-05T21:17:37.881Z,10.70
2018-11-05T21:20:43.323Z,10.76
2018-11-05T21:23:48.862Z,10.79
2018-11-05T21:26:54.326Z,10.81
2018-11-05T21:29:59.897Z,10.82
2018-11-05T21:33:05.615Z,10.70
2018-11-05T21:36:11.718Z,10.76
2018-11-05T21:39:17.154Z,10.79
2018-11-05T21:42:22.641Z,10.78
2018-11-05T21:45:28.010Z,10.66
2018-11-05T21:48:33.387Z,10.61
2018-11-05T21:51:38.893Z,10.54
2018-11-05T21:54:44.758Z,10.48
2018-11-05T21:57:50.517Z,10.56
2018-11-05T22:00:55.902Z,10.36
2018-11-05T22:04:01.290Z,10.40
2018-11-05T22:07:07.678Z,10.46
2018-11-05T22:10:13.713Z,10.47
2018-11-05T22:13:19.154Z,10.54
2018-11-05T22:16:24.526Z,10.43
2018-11-05T22:19:29.943Z,10.51
2018-11-05T22:22:35.466Z,10.52
2018-11-05T22:25:41.008Z,10.49
2018-11-05T22:28:46.377Z,10.50
2018-11-05T22:31:51.842Z,10.49
2018-11-05T22:34:57.509Z,10.41
2018-11-05T22:38:03.788Z,10.45
2018-11-05T22:41:09.548Z,10.38
2018-11-05T22:44:15.173Z,10.39
2018-11-05T22:47:20.530Z,10.38
2018-11-05T22:50:25.959Z,10.37
2018-11-05T22:53:31.642Z,10.34
2018-11-05T22:56:37.038Z,10.35
2018-11-05T22:59:42.922Z,10.34
2018-11-05T23:02:53.594Z,10.28
2018-11-05T23:05:59.786Z,10.26
2018-11-05T23:09:07.018Z,10.23
2018-11-05T23:12:12.518Z,10.20
2018-11-05T23:15:18.236Z,10.19
2018-11-05T23:18:23.598Z,10.16
2018-11-05T23:21:29.063Z,10.16
2018-11-05T23:24:34.450Z,10.11
2018-11-05T23:27:40.153Z,9.96
2018-11-05T23:30:45.578Z,9.96
2018-11-05T23:33:50.937Z,9.97
2018-11-05T23:36:56.482Z,9.98
2018-11-05T23:40:01.858Z,10.01
2018-11-05T23:43:07.294Z,9.96
2018-11-05T23:46:12.662Z,9.95
2018-11-05T23:49:18.146Z,9.94
2018-11-05T23:52:23.962Z,9.95
2018-11-05T23:55:29.335Z,9.90
2018-11-05T23:58:34.704Z,9.85
